Time;durP1;ratioP1;P1;durP2;ratioP2;P2;SDS_P1;SDS_P2;PMS_P1;PMS_P2;Temp;Humidity;BMP_temperature;BMP_pressure;BME280_temperature;BME280_humidity;BME280_pressure;Samples;Min_cycle;Max_cycle;Signal;HPM_P1;HPM_P2
2022/07/28 00:00:33;;;;;;;6.32;4.70;;;;;;;;;;5049201;28;20121;-55
2022/07/28 00:02:59;;;;;;;10.93;4.25;;;25.60;99.90;;;;;;5038884;28;20037;-55
2022/07/28 00:05:25;;;;;;;7.18;4.40;;;25.40;98.10;;;;;;5056737;28;20090;-55
2022/07/28 00:07:51;;;;;;;9.48;4.68;;;25.40;98.50;;;;;;5056518;28;20037;-55
2022/07/28 00:10:16;;;;;;;6.47;4.55;;;25.20;99.10;;;;;;5053906;28;20719;-55
2022/07/28 00:12:43;;;;;;;7.22;4.70;;;25.10;99.60;;;;;;5054070;28;20065;-55
2022/07/28 00:15:09;;;;;;;7.75;4.43;;;;;;;;;;5054966;28;20431;-55
2022/07/28 00:17:35;;;;;;;7.00;5.15;;;;;;;;;;5057792;28;20049;-55
2022/07/28 00:20:01;;;;;;;6.15;4.90;;;24.60;99.90;;;;;;5059005;28;20119;-55
2022/07/28 00:22:27;;;;;;;5.20;4.53;;;24.80;99.90;;;;;;5062954;28;20116;-55
2022/07/28 00:24:52;;;;;;;11.77;5.07;;;24.60;99.90;;;;;;5055793;28;20065;-55
2022/07/28 00:27:18;;;;;;;6.97;4.93;;;24.70;99.90;;;;;;5056219;28;20041;-55
2022/07/28 00:29:44;;;;;;;8.10;4.88;;;24.60;99.90;;;;;;5033341;28;20043;-55
2022/07/28 00:32:10;;;;;;;5.93;5.10;;;24.60;99.90;;;;;;5076014;28;20087;-55
2022/07/28 00:34:36;;;;;;;7.55;4.93;;;24.60;99.90;;;;;;5055862;28;20029;-55
2022/07/28 00:37:02;;;;;;;6.85;4.50;;;24.60;99.90;;;;;;5045830;28;20128;-55
2022/07/28 00:39:28;;;;;;;8.45;4.50;;;;;;;;;;5057618;28;20033;-54
2022/07/28 00:41:53;;;;;;;10.27;4.97;;;24.60;99.90;;;;;;5041820;28;20029;-54
2022/07/28 00:44:19;;;;;;;9.25;5.00;;;24.40;99.90;;;;;;5040688;28;20086;-55
2022/07/28 00:46:45;;;;;;;9.23;5.05;;;24.40;99.90;;;;;;5061757;28;20438;-54
2022/07/28 00:49:13;;;;;;;6.40;5.43;;;24.40;99.90;;;;;;5058379;28;20123;-55
2022/07/28 00:51:39;;;;;;;6.15;5.03;;;24.30;99.90;;;;;;5061911;28;20043;-55
2022/07/28 00:54:06;;;;;;;7.93;4.82;;;24.20;99.90;;;;;;5057588;28;20041;-56
2022/07/28 00:56:33;;;;;;;7.95;4.70;;;24.20;99.90;;;;;;5053937;28;20566;-55
2022/07/28 00:58:59;;;;;;;7.45;4.68;;;24.10;99.90;;;;;;5060437;28;20032;-54
2022/07/28 01:01:25;;;;;;;5.55;4.43;;;24.10;99.90;;;;;;5057893;28;20041;-54
2022/07/28 01:04:00;;;;;;;5.90;4.55;;;24.00;99.90;;;;;;5075266;28;20043;-54
2022/07/28 01:06:45;;;;;;;4.90;4.07;;;;;;;;;;5038930;28;20083;-55
2022/07/28 01:09:21;;;;;;;12.60;6.55;;;;;;;;;;5055793;28;20512;-55
2022/07/28 01:11:47;;;;;;;6.10;4.60;;;23.90;99.90;;;;;;5053427;28;20037;-55
2022/07/28 01:14:46;;;;;;;5.53;4.38;;;23.90;99.90;;;;;;5023734;28;20036;-55
2022/07/28 01:17:49;;;;;;;5.53;4.70;;;23.90;99.90;;;;;;5052396;28;20059;-55
2022/07/28 01:20:47;;;;;;;8.18;5.40;;;23.90;99.90;;;;;;5039673;28;20049;-54
2022/07/28 01:23:25;;;;;;;6.40;4.32;;;24.00;99.90;;;;;;5018126;28;20041;-55
2022/07/28 01:26:05;;;;;;;7.25;4.80;;;24.00;99.90;;;;;;5043019;28;20377;-55
2022/07/28 01:28:54;;;;;;;6.55;4.43;;;23.90;99.90;;;;;;5039430;28;20032;-55
2022/07/28 01:31:24;;;;;;;8.23;4.85;;;23.80;99.90;;;;;;5043063;28;20033;-55
2022/07/28 01:34:01;;;;;;;8.77;4.68;;;23.90;99.90;;;;;;5049629;28;20032;-55
2022/07/28 01:36:32;;;;;;;6.35;4.28;;;23.80;99.90;;;;;;5041245;28;20045;-55
2022/07/28 01:38:59;;;;;;;5.72;4.00;;;23.90;99.90;;;;;;5040791;28;20047;-54
2022/07/28 01:41:29;;;;;;;7.15;3.78;;;23.90;99.90;;;;;;5041873;28;20029;-55
2022/07/28 01:44:01;;;;;;;5.95;4.13;;;23.80;99.90;;;;;;5043785;28;20026;-55
2022/07/28 01:46:28;;;;;;;4.72;4.03;;;23.80;99.90;;;;;;5041044;28;20139;-55
2022/07/28 01:48:56;;;;;;;7.28;4.57;;;23.80;99.90;;;;;;5041488;28;20465;-55
2022/07/28 01:51:26;;;;;;;5.07;4.03;;;23.80;99.90;;;;;;5041294;28;20029;-54
2022/07/28 01:53:55;;;;;;;4.68;3.95;;;23.80;99.90;;;;;;5046790;28;20041;-54
2022/07/28 01:56:22;;;;;;;4.82;3.90;;;23.70;99.90;;;;;;5040520;28;20076;-55
2022/07/28 01:58:51;;;;;;;6.47;3.85;;;23.80;99.90;;;;;;5050599;28;20144;-54
2022/07/28 02:01:19;;;;;;;9.90;4.72;;;23.80;99.90;;;;;;5047798;28;20033;-55
2022/07/28 02:03:46;;;;;;;6.32;4.30;;;23.80;99.90;;;;;;5039490;28;20168;-54
2022/07/28 02:06:14;;;;;;;11.18;4.40;;;23.70;99.90;;;;;;5042994;28;20060;-55
2022/07/28 02:08:41;;;;;;;5.78;4.18;;;23.70;99.90;;;;;;5026083;28;20044;-56
2022/07/28 02:13:53;;;;;;;7.32;4.07;;;23.80;99.90;;;;;;5045237;28;20542;-55
2022/07/28 02:16:23;;;;;;;6.22;3.90;;;23.70;99.90;;;;;;5041445;28;20045;-55
2022/07/28 02:18:52;;;;;;;4.50;4.03;;;23.70;99.90;;;;;;5070249;28;20121;-54
2022/07/28 02:21:20;;;;;;;5.57;4.40;;;23.90;99.90;;;;;;5061672;28;20079;-55
2022/07/28 02:23:49;;;;;;;5.93;4.05;;;23.80;99.90;;;;;;5064544;28;20037;-54
2022/07/28 02:26:17;;;;;;;6.72;4.30;;;23.80;99.90;;;;;;5056393;28;20025;-55
2022/07/28 02:28:45;;;;;;;4.80;4.15;;;23.80;99.90;;;;;;5056390;28;20534;-55
2022/07/28 02:31:28;;;;;;;4.68;3.50;;;23.80;99.90;;;;;;5062030;28;20082;-55
2022/07/28 02:33:58;;;;;;;5.88;3.75;;;23.80;99.90;;;;;;5057518;28;20048;-54
2022/07/28 02:36:36;;;;;;;5.68;4.05;;;23.80;99.90;;;;;;5063434;28;20460;-57
2022/07/28 02:39:06;;;;;;;5.85;4.15;;;23.70;99.90;;;;;;5066320;28;20028;-54
2022/07/28 02:41:38;;;;;;;9.85;4.72;;;23.60;99.90;;;;;;5057078;28;20033;-55
2022/07/28 02:44:10;;;;;;;9.00;4.93;;;23.60;99.90;;;;;;5057179;28;20116;-54
2022/07/28 02:46:47;;;;;;;6.65;4.25;;;23.70;99.90;;;;;;5064219;28;20052;-55
2022/07/28 02:49:18;;;;;;;4.53;4.07;;;23.70;99.90;;;;;;5055854;28;20037;-55
2022/07/28 02:51:46;;;;;;;4.90;4.37;;;23.70;99.90;;;;;;5041669;28;20056;-55
2022/07/28 02:54:13;;;;;;;7.22;4.93;;;23.60;99.90;;;;;;5052462;28;20294;-54
2022/07/28 02:56:41;;;;;;;5.07;3.95;;;23.50;99.90;;;;;;5044319;28;20033;-55
2022/07/28 02:59:09;;;;;;;6.57;3.95;;;23.50;99.90;;;;;;5040335;28;20109;-54
2022/07/28 03:01:35;;;;;;;8.73;3.72;;;23.50;99.90;;;;;;5074040;28;20044;-54
2022/07/28 03:04:02;;;;;;;6.95;4.22;;;23.50;99.90;;;;;;5042900;28;20025;-55
2022/07/28 03:06:28;;;;;;;5.90;4.22;;;24.10;99.90;;;;;;5040976;28;20052;-54
2022/07/28 03:08:54;;;;;;;5.05;3.95;;;23.40;99.90;;;;;;5045586;28;20412;-54
2022/07/28 03:11:20;;;;;;;7.63;4.68;;;23.30;99.90;;;;;;5042810;28;20025;-54
2022/07/28 03:13:45;;;;;;;6.30;3.85;;;23.30;99.90;;;;;;5038581;28;20094;-54
2022/07/28 03:16:12;;;;;;;5.25;4.28;;;23.20;99.90;;;;;;5045311;28;20064;-54
2022/07/28 03:18:38;;;;;;;6.35;4.25;;;23.20;99.90;;;;;;5110142;27;20365;-55
2022/07/28 03:21:04;;;;;;;5.97;5.00;;;23.30;99.90;;;;;;5045049;28;20078;-55
2022/07/28 03:23:40;;;;;;;5.85;4.63;;;23.20;99.90;;;;;;5042016;28;20117;-54
2022/07/28 03:26:12;;;;;;;11.07;6.47;;;23.20;99.90;;;;;;5041711;28;20020;-55
2022/07/28 03:28:40;;;;;;;6.72;4.43;;;23.30;99.90;;;;;;5040449;28;20107;-54
2022/07/28 03:31:09;;;;;;;4.78;4.10;;;23.30;99.90;;;;;;5041717;28;20025;-55
2022/07/28 03:33:36;;;;;;;6.10;4.05;;;;;;;;;;5042175;28;20481;-54
2022/07/28 03:36:08;;;;;;;4.97;4.28;;;23.20;99.90;;;;;;5039083;28;20104;-55
2022/07/28 03:38:42;;;;;;;7.43;4.57;;;23.30;99.90;;;;;;5040312;28;20128;-56
2022/07/28 03:41:09;;;;;;;6.22;4.30;;;;;;;;;;5037401;28;20033;-54
2022/07/28 03:43:36;;;;;;;6.07;4.65;;;;;;;;;;5042762;28;20033;-54
2022/07/28 03:46:02;;;;;;;7.93;4.32;;;;;;;;;;5038397;28;20049;-54
2022/07/28 03:48:29;;;;;;;6.25;4.63;;;;;;;;;;5039366;28;20108;-54
2022/07/28 03:50:55;;;;;;;6.03;4.30;;;23.10;99.90;;;;;;5060824;28;20116;-54
2022/07/28 03:53:26;;;;;;;6.45;3.97;;;23.10;99.90;;;;;;5043822;28;20147;-54
2022/07/28 03:55:53;;;;;;;7.30;5.10;;;23.10;99.90;;;;;;5050166;28;20480;-55
2022/07/28 03:58:21;;;;;;;6.78;4.60;;;23.10;99.90;;;;;;5036811;28;20029;-55
2022/07/28 04:00:48;;;;;;;7.78;4.72;;;23.10;99.90;;;;;;5037311;28;20029;-55
2022/07/28 04:03:14;;;;;;;11.32;4.88;;;23.10;99.90;;;;;;5042372;28;20384;-53
2022/07/28 04:05:39;;;;;;;8.82;4.55;;;23.10;99.90;;;;;;5042729;28;20045;-53
2022/07/28 04:08:05;;;;;;;14.27;5.20;;;23.10;99.90;;;;;;5044899;28;20028;-53
2022/07/28 04:10:31;;;;;;;6.03;4.65;;;23.10;99.90;;;;;;5035873;28;20392;-53
2022/07/28 04:12:58;;;;;;;6.90;4.35;;;23.10;99.90;;;;;;5025797;28;20569;-53
2022/07/28 04:15:25;;;;;;;5.97;4.57;;;23.10;99.90;;;;;;5037861;28;20071;-54
2022/07/28 04:17:52;;;;;;;8.13;4.65;;;23.20;99.90;;;;;;5046585;28;20451;-54
2022/07/28 04:20:21;;;;;;;5.60;4.30;;;23.10;99.90;;;;;;5044581;28;20036;-54
2022/07/28 04:22:47;;;;;;;7.68;4.47;;;23.00;99.90;;;;;;5010406;28;20040;-54
2022/07/28 04:25:14;;;;;;;5.72;4.03;;;23.10;99.90;;;;;;5042353;28;20033;-53
2022/07/28 04:27:42;;;;;;;8.30;4.80;;;23.00;99.90;;;;;;5039125;28;20040;-54
2022/07/28 04:30:13;;;;;;;7.93;5.78;;;23.00;99.90;;;;;;5045748;28;20611;-54
2022/07/28 04:32:46;;;;;;;6.13;4.82;;;23.00;99.90;;;;;;5042183;28;20029;-54
2022/07/28 04:35:12;;;;;;;11.13;5.32;;;22.90;99.90;;;;;;5044385;28;20036;-54
2022/07/28 04:37:39;;;;;;;5.40;4.70;;;22.90;99.90;;;;;;5045908;28;20504;-55
2022/07/28 04:40:06;;;;;;;6.45;4.07;;;22.90;99.90;;;;;;5044029;28;20029;-54
2022/07/28 04:42:33;;;;;;;11.13;6.90;;;22.90;99.90;;;;;;5028461;28;20128;-54
2022/07/28 04:44:59;;;;;;;5.50;3.95;;;23.00;99.90;;;;;;5014295;28;20515;-54
2022/07/28 04:47:25;;;;;;;5.85;4.78;;;22.90;99.90;;;;;;5043427;28;20068;-55
2022/07/28 04:49:51;;;;;;;6.57;4.35;;;22.90;99.90;;;;;;5047390;28;20029;-53
2022/07/28 04:52:17;;;;;;;8.15;4.45;;;23.00;99.90;;;;;;5044404;28;20048;-54
2022/07/28 04:54:44;;;;;;;12.55;4.72;;;23.00;99.90;;;;;;5048827;28;20054;-54
2022/07/28 04:57:10;;;;;;;6.78;4.68;;;23.00;99.90;;;;;;5045505;28;20044;-54
2022/07/28 04:59:37;;;;;;;6.10;3.78;;;23.00;99.90;;;;;;5049485;28;20032;-58
2022/07/28 05:02:03;;;;;;;5.13;4.10;;;23.00;99.90;;;;;;5051931;28;20037;-53
2022/07/28 05:04:29;;;;;;;7.97;4.60;;;23.00;99.90;;;;;;5052933;28;20078;-54
2022/07/28 05:06:54;;;;;;;9.77;4.22;;;23.00;99.90;;;;;;5049119;28;20036;-54
2022/07/28 05:09:20;;;;;;;5.45;4.65;;;23.10;99.90;;;;;;5047981;28;20020;-53
2022/07/28 05:11:46;;;;;;;8.70;5.35;;;23.00;99.90;;;;;;5065378;28;20078;-54
2022/07/28 05:14:12;;;;;;;8.52;4.05;;;23.10;99.90;;;;;;5047387;28;20594;-54
2022/07/28 05:16:38;;;;;;;8.90;4.10;;;23.10;99.90;;;;;;5040834;28;20081;-54
2022/07/28 05:19:04;;;;;;;6.47;4.53;;;23.10;99.90;;;;;;5032738;28;20040;-54
2022/07/28 05:21:30;;;;;;;7.20;4.28;;;23.00;99.90;;;;;;5045025;28;20058;-54
2022/07/28 05:23:55;;;;;;;7.60;4.90;;;23.10;99.90;;;;;;5037234;28;20481;-54
2022/07/28 05:26:21;;;;;;;7.00;4.60;;;23.10;99.90;;;;;;5029220;28;20121;-54
2022/07/28 05:28:47;;;;;;;6.72;4.70;;;23.10;99.90;;;;;;5051677;28;20487;-53
2022/07/28 05:31:13;;;;;;;5.70;4.13;;;23.00;99.90;;;;;;5041747;28;20041;-53
2022/07/28 05:33:39;;;;;;;7.97;4.28;;;23.10;99.90;;;;;;5042215;28;20037;-54
2022/07/28 05:36:05;;;;;;;5.45;4.30;;;23.00;99.90;;;;;;5030216;28;20037;-52
2022/07/28 05:38:31;;;;;;;5.45;4.38;;;23.00;99.90;;;;;;5047813;28;20033;-53
2022/07/28 05:40:58;;;;;;;6.72;4.78;;;23.00;99.90;;;;;;5045715;28;20032;-55
2022/07/28 05:43:24;;;;;;;8.88;4.30;;;23.10;99.90;;;;;;5038422;28;21355;-51
2022/07/28 05:45:50;;;;;;;8.75;5.05;;;23.00;99.90;;;;;;5016015;28;20094;-59
2022/07/28 05:48:17;;;;;;;6.55;4.50;;;23.00;99.90;;;;;;5037906;28;20040;-54
2022/07/28 05:50:43;;;;;;;9.95;4.65;;;23.00;99.90;;;;;;5044858;28;20029;-53
2022/07/28 05:53:09;;;;;;;6.97;4.10;;;22.90;99.90;;;;;;5051669;28;20083;-50
2022/07/28 05:55:35;;;;;;;6.43;4.30;;;23.00;99.90;;;;;;5044673;28;20044;-50
2022/07/28 05:58:01;;;;;;;6.03;3.78;;;23.00;99.90;;;;;;5040747;28;20041;-56
2022/07/28 06:00:27;;;;;;;7.85;4.22;;;23.00;99.90;;;;;;5050206;28;20112;-59
2022/07/28 06:02:53;;;;;;;6.47;3.70;;;23.00;99.90;;;;;;5039336;28;20044;-53
2022/07/28 06:05:21;;;;;;;5.53;3.90;;;23.00;99.90;;;;;;5036555;28;20484;-52
2022/07/28 06:07:48;;;;;;;6.45;4.35;;;23.00;99.90;;;;;;5040383;28;20518;-57
2022/07/28 06:10:20;;;;;;;7.03;4.10;;;23.00;99.90;;;;;;5041520;28;20033;-53
2022/07/28 06:12:48;;;;;;;7.30;4.40;;;23.10;99.90;;;;;;5041440;28;20376;-53
2022/07/28 06:15:19;;;;;;;9.82;4.60;;;23.20;99.90;;;;;;5042424;28;20040;-54
2022/07/28 06:17:45;;;;;;;7.35;4.18;;;23.20;99.90;;;;;;5045205;28;20040;-55
2022/07/28 06:20:11;;;;;;;7.07;4.10;;;23.20;99.90;;;;;;5044424;28;20060;-53
2022/07/28 06:22:45;;;;;;;6.05;4.40;;;23.30;99.90;;;;;;5047316;28;20029;-52
2022/07/28 06:25:19;;;;;;;8.02;4.10;;;23.50;99.90;;;;;;5044007;28;20021;-53
2022/07/28 06:27:49;;;;;;;10.68;4.47;;;23.40;99.90;;;;;;5039369;28;20469;-53
2022/07/28 06:30:16;;;;;;;6.85;3.88;;;23.50;99.90;;;;;;5047354;28;20383;-52
2022/07/28 06:32:41;;;;;;;6.35;4.57;;;23.60;99.90;;;;;;5043158;28;20029;-52
2022/07/28 06:35:08;;;;;;;7.28;4.30;;;23.50;99.90;;;;;;5041333;28;20029;-53
2022/07/28 06:37:34;;;;;;;11.02;4.00;;;23.50;99.90;;;;;;5042232;28;20136;-65
2022/07/28 06:40:00;;;;;;;6.88;4.60;;;23.50;99.90;;;;;;5042970;28;20031;-58
2022/07/28 06:42:26;;;;;;;8.25;4.15;;;23.50;99.90;;;;;;5046698;28;20028;-50
2022/07/28 06:44:52;;;;;;;9.20;4.65;;;23.60;99.90;;;;;;5037706;28;20112;-56
2022/07/28 06:47:19;;;;;;;6.72;4.45;;;23.60;99.90;;;;;;5057527;28;20488;-52
2022/07/28 06:49:45;;;;;;;7.00;3.80;;;23.60;99.90;;;;;;5045173;28;20029;-53
2022/07/28 06:52:11;;;;;;;6.80;4.40;;;23.70;99.90;;;;;;5040632;28;20029;-56
2022/07/28 06:54:37;;;;;;;14.15;4.57;;;23.70;99.90;;;;;;5041260;28;20425;-56
2022/07/28 06:57:03;;;;;;;9.85;4.53;;;23.70;99.90;;;;;;5041672;28;20536;-52
2022/07/28 06:59:29;;;;;;;7.15;4.28;;;23.80;99.90;;;;;;5025686;28;20129;-55
2022/07/28 07:02:00;;;;;;;7.95;4.40;;;23.90;99.90;;;;;;5035283;28;20116;-55
2022/07/28 07:04:27;;;;;;;6.55;4.55;;;23.80;99.90;;;;;;5042984;28;20048;-52
2022/07/28 07:06:53;;;;;;;7.60;4.28;;;23.80;99.90;;;;;;5039447;28;20120;-49
2022/07/28 07:09:18;;;;;;;10.07;4.78;;;24.00;99.90;;;;;;5036891;28;20112;-52
2022/07/28 07:11:44;;;;;;;7.80;4.07;;;24.00;99.90;;;;;;5042243;28;20036;-50
2022/07/28 07:14:10;;;;;;;6.63;4.53;;;24.00;99.90;;;;;;5042772;28;20503;-58
2022/07/28 07:16:36;;;;;;;6.78;4.10;;;24.10;99.90;;;;;;5044407;28;20548;-52
2022/07/28 07:19:01;;;;;;;8.65;5.22;;;24.10;99.90;;;;;;5037194;28;20165;-52
2022/07/28 07:21:27;;;;;;;8.77;4.57;;;24.00;99.90;;;;;;5035383;28;20136;-52
2022/07/28 07:23:53;;;;;;;9.75;4.60;;;24.10;99.90;;;;;;5017617;28;20128;-53
2022/07/28 07:26:19;;;;;;;8.95;4.50;;;24.10;99.90;;;;;;5025367;28;20083;-53
2022/07/28 07:28:45;;;;;;;5.55;4.68;;;24.10;99.90;;;;;;5037957;28;20037;-52
2022/07/28 07:31:10;;;;;;;6.22;4.45;;;24.10;99.90;;;;;;5011956;28;20034;-52
2022/07/28 07:33:36;;;;;;;11.45;4.85;;;24.10;99.90;;;;;;5038902;28;20123;-52
2022/07/28 07:36:02;;;;;;;7.25;4.45;;;24.10;99.90;;;;;;4988062;28;20112;-53
2022/07/28 07:38:28;;;;;;;8.07;4.65;;;24.20;99.90;;;;;;4980834;28;20038;-53
2022/07/28 07:40:54;;;;;;;6.78;4.47;;;24.20;99.90;;;;;;4994060;28;20042;-52
2022/07/28 07:43:19;;;;;;;9.27;4.78;;;24.30;99.90;;;;;;5000028;28;20031;-54
2022/07/28 07:45:45;;;;;;;11.10;5.03;;;24.30;99.90;;;;;;4992849;28;20052;-54
2022/07/28 07:48:11;;;;;;;8.98;4.75;;;24.40;99.90;;;;;;4988484;28;20498;-58
2022/07/28 07:50:37;;;;;;;6.28;4.60;;;24.50;99.90;;;;;;5013002;28;20046;-54
2022/07/28 07:53:03;;;;;;;9.43;4.75;;;24.50;99.90;;;;;;5031490;28;20095;-55
2022/07/28 07:55:29;;;;;;;10.15;4.70;;;24.60;99.90;;;;;;5002961;28;20096;-53
2022/07/28 07:57:55;;;;;;;9.70;4.50;;;24.70;99.90;;;;;;5043040;28;20042;-51
2022/07/28 08:00:21;;;;;;;6.38;4.03;;;24.70;99.90;;;;;;5014689;28;20037;-52
2022/07/28 08:02:47;;;;;;;8.52;3.97;;;24.80;99.90;;;;;;5006786;28;20046;-52
2022/07/28 08:05:13;;;;;;;5.65;4.50;;;25.00;99.90;;;;;;5017680;28;20068;-56
2022/07/28 08:07:39;;;;;;;7.90;4.38;;;25.00;99.90;;;;;;5032827;28;20045;-55
2022/07/28 08:10:06;;;;;;;7.13;4.53;;;25.00;99.90;;;;;;5036590;28;20033;-57
2022/07/28 08:12:32;;;;;;;7.93;4.75;;;25.00;99.90;;;;;;5041720;28;20028;-50
2022/07/28 08:14:58;;;;;;;10.50;5.03;;;25.00;99.90;;;;;;5040604;28;20021;-53
2022/07/28 08:17:24;;;;;;;7.80;4.72;;;25.10;99.90;;;;;;5039354;28;20110;-53
2022/07/28 08:19:50;;;;;;;6.93;4.82;;;25.00;99.90;;;;;;5040540;28;20034;-54
2022/07/28 08:22:16;;;;;;;8.98;4.93;;;25.00;99.90;;;;;;5017885;28;20025;-54
2022/07/28 08:24:42;;;;;;;9.07;4.60;;;25.00;99.90;;;;;;5035019;28;20029;-54
2022/07/28 08:27:08;;;;;;;7.07;4.38;;;24.90;99.90;;;;;;5034786;28;20033;-51
2022/07/28 08:29:33;;;;;;;6.82;4.55;;;25.00;99.90;;;;;;5036900;28;20037;-60
2022/07/28 08:32:02;;;;;;;8.35;4.32;;;24.90;99.90;;;;;;5039333;28;20120;-53
2022/07/28 08:34:32;;;;;;;8.07;4.57;;;25.00;99.90;;;;;;5046761;28;20053;-53
2022/07/28 08:36:57;;;;;;;14.57;5.88;;;25.00;99.90;;;;;;5044672;28;20073;-52
2022/07/28 08:39:23;;;;;;;10.32;4.85;;;25.00;99.90;;;;;;5047462;28;20063;-61
2022/07/28 08:42:08;;;;;;;6.85;4.22;;;24.90;99.90;;;;;;5043494;28;20033;-53
2022/07/28 08:44:48;;;;;;;7.47;4.85;;;25.00;99.90;;;;;;5043659;28;20029;-52
2022/07/28 08:47:15;;;;;;;7.95;4.95;;;25.10;99.90;;;;;;5047067;28;20024;-51
2022/07/28 08:49:42;;;;;;;9.30;5.32;;;25.10;99.90;;;;;;5046481;28;20029;-53
2022/07/28 08:52:12;;;;;;;10.82;4.75;;;25.10;99.90;;;;;;5062643;28;20063;-52
2022/07/28 08:54:45;;;;;;;10.02;4.60;;;25.10;99.90;;;;;;5042542;28;20063;-54
2022/07/28 08:57:17;;;;;;;8.85;5.80;;;25.10;99.90;;;;;;5049955;28;20045;-53
2022/07/28 08:59:45;;;;;;;9.32;4.28;;;25.10;99.90;;;;;;5044326;28;20041;-51
2022/07/28 09:02:14;;;;;;;9.10;4.95;;;25.00;99.90;;;;;;5043996;28;20075;-53
2022/07/28 09:04:41;;;;;;;10.73;4.80;;;25.00;99.90;;;;;;5040990;28;20084;-52
2022/07/28 09:07:07;;;;;;;8.07;4.85;;;25.00;99.90;;;;;;5051682;28;20040;-54
2022/07/28 09:09:33;;;;;;;6.32;4.50;;;24.90;99.90;;;;;;5023313;28;20041;-53
2022/07/28 09:12:04;;;;;;;8.38;5.03;;;25.00;99.90;;;;;;5046276;28;20059;-55
2022/07/28 09:14:31;;;;;;;8.30;4.63;;;25.10;99.90;;;;;;5041907;28;20029;-51
2022/07/28 09:16:59;;;;;;;7.60;4.82;;;25.20;99.90;;;;;;5048582;28;20084;-56
2022/07/28 09:19:25;;;;;;;5.25;4.75;;;25.20;99.90;;;;;;5045880;28;20032;-54
2022/07/28 09:21:51;;;;;;;8.88;5.10;;;25.40;99.90;;;;;;5046809;28;20025;-54
2022/07/28 09:24:35;;;;;;;9.38;4.78;;;;;;;;;;5044247;28;20496;-59
2022/07/28 09:27:05;;;;;;;7.57;5.18;;;;;;;;;;5040567;28;20044;-53
2022/07/28 09:29:31;;;;;;;7.38;5.05;;;25.80;99.90;;;;;;5044730;28;20574;-57
2022/07/28 09:31:57;;;;;;;12.88;4.93;;;26.00;99.90;;;;;;5043618;28;20044;-58
2022/07/28 09:34:23;;;;;;;33.63;5.72;;;26.00;99.90;;;;;;5038288;28;20400;-55
2022/07/28 09:36:49;;;;;;;7.70;4.25;;;26.00;99.90;;;;;;5038100;28;20095;-57
2022/07/28 09:39:36;;;;;;;9.38;4.00;;;;;;;;;;5047079;28;20419;-53
2022/07/28 09:42:02;;;;;;;9.50;4.82;;;26.40;99.90;;;;;;5037348;28;20103;-53
2022/07/28 09:44:28;;;;;;;7.68;4.55;;;26.60;99.90;;;;;;5032570;28;20565;-54
2022/07/28 09:46:55;;;;;;;7.32;4.38;;;26.90;99.90;;;;;;5045060;28;20049;-57
2022/07/28 09:49:21;;;;;;;11.65;4.72;;;;;;;;;;5039527;28;20068;-51
2022/07/28 09:52:00;;;;;;;11.65;4.85;;;;;;;;;;5042609;28;20037;-50
2022/07/28 09:54:26;;;;;;;10.63;4.97;;;27.10;99.90;;;;;;5022044;28;21290;-61
2022/07/28 09:56:53;;;;;;;8.38;4.60;;;27.40;99.90;;;;;;5035749;28;20112;-58
2022/07/28 09:59:20;;;;;;;9.10;4.88;;;;;;;;;;5040784;28;20036;-53
2022/07/28 10:02:04;;;;;;;8.38;4.60;;;27.50;99.90;;;;;;5044067;28;20033;-51
2022/07/28 10:04:30;;;;;;;10.40;4.72;;;;;;;;;;5026792;28;20036;-56
2022/07/28 10:07:08;;;;;;;16.92;5.03;;;27.80;99.90;;;;;;5041269;28;20064;-54
2022/07/28 10:09:34;;;;;;;7.03;4.53;;;;;;;;;;5042190;28;20073;-58
2022/07/28 10:12:19;;;;;;;10.68;4.88;;;;;;;;;;5032161;28;20491;-64
2022/07/28 10:14:46;;;;;;;6.95;4.50;;;28.20;99.90;;;;;;5034608;28;20095;-57
2022/07/28 10:17:21;;;;;;;9.00;5.00;;;;;;;;;;5035225;28;20080;-54
2022/07/28 10:19:47;;;;;;;8.00;4.78;;;28.40;99.90;;;;;;5035684;28;20476;-61
2022/07/28 10:22:14;;;;;;;8.68;5.38;;;;;;;;;;5040283;28;20049;-53
2022/07/28 10:24:41;;;;;;;8.38;4.70;;;;;;;;;;5048736;28;20037;-52
2022/07/28 10:27:07;;;;;;;8.93;4.75;;;28.80;99.90;;;;;;5051382;28;20054;-54
2022/07/28 10:29:33;;;;;;;7.50;4.50;;;28.90;99.90;;;;;;5050880;28;20029;-54
2022/07/28 10:32:05;;;;;;;7.78;4.60;;;28.70;99.90;;;;;;5025995;28;20037;-57
2022/07/28 10:34:34;;;;;;;9.27;4.50;;;28.80;99.90;;;;;;5031083;28;20425;-54
2022/07/28 10:37:02;;;;;;;7.95;4.63;;;29.00;99.90;;;;;;5042288;28;20064;-54
2022/07/28 10:39:37;;;;;;;9.88;4.72;;;29.10;99.90;;;;;;5034710;28;20033;-52
2022/07/28 10:42:07;;;;;;;6.55;4.38;;;29.10;99.90;;;;;;5045511;28;20029;-56
2022/07/28 10:44:33;;;;;;;7.35;4.90;;;;;;;;;;5041316;28;20029;-59
2022/07/28 10:46:59;;;;;;;9.60;4.53;;;29.40;99.90;;;;;;5042998;28;20029;-56
2022/07/28 10:49:26;;;;;;;8.95;4.07;;;29.20;99.90;;;;;;5038194;28;20028;-57
2022/07/28 10:51:53;;;;;;;7.55;3.95;;;29.30;99.90;;;;;;5053387;28;20028;-54
2022/07/28 10:54:27;;;;;;;12.23;4.65;;;;;;;;;;5053213;28;20025;-64
2022/07/28 10:56:57;;;;;;;8.43;4.78;;;29.60;99.90;;;;;;5052180;28;20507;-58
2022/07/28 10:59:38;;;;;;;9.10;5.03;;;30.00;99.90;;;;;;5053101;28;20021;-57
2022/07/28 11:02:04;;;;;;;5.63;4.30;;;30.40;99.90;;;;;;5053218;28;20086;-56
2022/07/28 11:04:47;;;;;;;8.90;4.22;;;30.10;99.90;;;;;;5053522;28;20369;-61
2022/07/28 11:07:17;;;;;;;4.82;3.78;;;30.50;99.90;;;;;;5044824;28;20049;-58
2022/07/28 11:09:46;;;;;;;5.53;4.03;;;30.30;99.90;;;;;;5041635;28;20021;-57
2022/07/28 11:12:14;;;;;;;8.20;3.95;;;30.00;99.90;;;;;;5043380;28;20040;-58
2022/07/28 11:14:41;;;;;;;6.55;3.75;;;29.90;99.90;;;;;;5036960;28;20052;-55
2022/07/28 11:17:06;;;;;;;10.95;3.95;;;30.10;99.90;;;;;;5040291;28;20055;-59
2022/07/28 11:19:44;;;;;;;7.68;3.47;;;30.10;99.90;;;;;;5041297;28;20524;-55
2022/07/28 11:25:03;;;;;;;9.82;4.32;;;30.10;99.90;;;;;;5042508;28;20033;-53
2022/07/28 11:27:41;;;;;;;8.55;4.50;;;30.00;99.90;;;;;;5038727;28;20064;-53
2022/07/28 11:30:14;;;;;;;4.82;3.90;;;29.90;99.90;;;;;;5075030;28;20051;-57
2022/07/28 11:32:49;;;;;;;7.43;3.85;;;30.00;99.90;;;;;;5042416;28;20041;-52
2022/07/28 11:35:18;;;;;;;45.72;15.60;;;30.10;99.90;;;;;;5041712;28;20021;-53
2022/07/28 11:38:00;;;;;;;5.95;4.47;;;;;;;;;;5022932;28;20069;-54
2022/07/28 11:40:38;;;;;;;14.43;6.22;;;;;;;;;;5040662;28;20036;-56
2022/07/28 11:43:22;;;;;;;4.35;3.53;;;;;;;;;;5043586;28;20056;-56
2022/07/28 11:46:14;;;;;;;5.97;4.00;;;;;;;;;;5032522;28;20034;-56
2022/07/28 11:48:41;;;;;;;51.78;29.55;;;;;;;;;;5031244;28;20090;-62
2022/07/28 11:51:09;;;;;;;8.13;4.00;;;;;;;;;;5032455;28;20029;-56
2022/07/28 11:53:45;;;;;;;5.68;4.13;;;;;;;;;;5033841;28;20495;-56
2022/07/28 11:56:13;;;;;;;8.75;3.70;;;;;;;;;;5052134;28;20032;-55
2022/07/28 11:58:39;;;;;;;5.78;4.10;;;;;;;;;;5050192;28;20079;-57
2022/07/28 12:01:11;;;;;;;6.68;4.15;;;;;;;;;;5052177;28;20222;-54
2022/07/28 12:03:39;;;;;;;4.78;3.50;;;;;;;;;;5052009;28;20104;-54
2022/07/28 12:06:05;;;;;;;8.55;4.20;;;;;;;;;;5052000;28;20060;-54
2022/07/28 12:08:53;;;;;;;7.63;3.90;;;31.00;99.10;;;;;;5050942;28;20497;-54
2022/07/28 12:11:19;;;;;;;5.38;3.47;;;;;;;;;;5063698;28;20045;-59
2022/07/28 12:13:46;;;;;;;6.45;3.75;;;;;;;;;;5052148;28;20362;-52
2022/07/28 12:16:13;;;;;;;9.27;3.97;;;;;;;;;;5051467;28;20037;-55
2022/07/28 12:18:40;;;;;;;5.28;4.38;;;;;;;;;;5027841;28;20056;-53
2022/07/28 12:21:06;;;;;;;7.43;3.63;;;;;;;;;;5048408;28;20037;-53
2022/07/28 12:23:38;;;;;;;7.22;3.90;;;31.70;94.40;;;;;;5036570;28;20033;-51
2022/07/28 12:26:05;;;;;;;;;;;;;;;;;;5055735;28;20036;-55
2022/07/28 12:28:33;;;;;;;8.65;4.13;;;31.90;94.10;;;;;;5041762;28;19905;-57
2022/07/28 12:31:12;;;;;;;4.10;3.28;;;31.80;93.80;;;;;;5039127;28;20072;-56
2022/07/28 12:33:38;;;;;;;5.35;3.28;;;31.90;93.70;;;;;;5037864;28;20091;-55
2022/07/28 12:36:05;;;;;;;5.72;3.55;;;32.10;93.00;;;;;;5043822;28;20040;-53
2022/07/28 12:38:32;;;;;;;8.57;4.20;;;32.20;92.60;;;;;;5034831;28;20117;-54
2022/07/28 12:40:58;;;;;;;4.47;3.40;;;;;;;;;;5038272;28;20056;-59
2022/07/28 12:43:28;;;;;;;4.68;3.28;;;32.40;92.10;;;;;;5056982;28;20052;-60
2022/07/28 12:45:54;;;;;;;7.68;3.90;;;32.40;92.10;;;;;;5040727;28;20036;-59
2022/07/28 12:48:21;;;;;;;7.78;3.72;;;31.90;91.80;;;;;;5032674;28;20445;-54
2022/07/28 12:50:48;;;;;;;6.78;4.35;;;32.70;92.30;;;;;;5046757;28;20034;-56
2022/07/28 12:53:15;;;;;;;5.57;3.80;;;32.70;92.00;;;;;;5038260;28;20044;-66
2022/07/28 12:55:42;;;;;;;8.27;3.25;;;;;;;;;;5040147;28;20476;-59
2022/07/28 12:58:28;;;;;;;6.40;3.45;;;32.90;96.60;;;;;;5041457;28;20029;-56
2022/07/28 13:00:54;;;;;;;4.78;3.10;;;32.90;90.10;;;;;;5042363;28;20025;-57
2022/07/28 13:03:25;;;;;;;5.45;3.35;;;33.10;95.70;;;;;;5033766;28;20040;-55
2022/07/28 13:06:01;;;;;;;6.03;3.42;;;33.00;97.10;;;;;;5047494;28;20078;-59
2022/07/28 13:08:27;;;;;;;5.38;3.47;;;33.00;96.50;;;;;;5041268;28;20436;-58
2022/07/28 13:10:53;;;;;;;4.57;3.05;;;33.10;96.70;;;;;;5031219;28;20022;-58
2022/07/28 13:13:19;;;;;;;9.02;3.88;;;33.20;98.00;;;;;;5046679;28;20108;-57